Volgo-balt 229 — UHZF — position and weather

sailwx.info

Track history (hours):
 
Tides and Currents Weather Stations Pressure Air Temp Water Temp Dewpoint Dewpoint Depression Visibility Wind Speed Wind Dir Waves Ship Positions

Volgo-balt 229

Last reported at 2016-Jul-30 02:27 UTC. Time now 2016-Jul-30 07:23 UTC.
Position N 60°12' E 027°45'.

Length 113 m; draft 3.6 m.

Type: Ship. MMSI: 273336300.

Date/timePositionNaut miles runAvg speedWind from/ knotsBaromVisibWave heightAir tempDewpointWater temp
2016-Jul-30 02:27N 60°12' E 027°45'8 8.5
2016-Jul-30 01:29N 60°10' E 028°01'8 8.5
2016-Jul-30 00:33N 60°08' E 028°17'8 8.4
2016-Jul-29 23:33N 60°04' E 028°31'8 8.2
2016-Jul-29 22:33N 60°03' E 028°47'26 8.2
2016-Jul-29 19:25N 60°00' E 029°38'10 7.6
2016-Jul-29 18:10N 59°56' E 029°56'5 8.0
2016-Jul-29 17:33N 59°54' E 030°05'5 5.0
2016-Jul-29 16:32N 59°55' E 030°15'0 0.0
2016-Jul-29 15:32N 59°55' E 030°15'0 0.0
2016-Jul-29 14:32N 59°55' E 030°15'0 0.0
2016-Jul-29 13:32N 59°55' E 030°15'0 0.0
2016-Jul-29 12:32N 59°55' E 030°15'0 0.0
2016-Jul-29 11:32N 59°55' E 030°15'0 0.0
2016-Jul-29 10:32N 59°55' E 030°15'0 0.0
2016-Jul-29 09:32N 59°55' E 030°15'0 0.0
2016-Jul-29 08:26N 59°55' E 030°15'0 0.0
2016-Jul-29 07:32N 59°55' E 030°15'0 0.0
2016-Jul-29 06:32N 59°55' E 030°15'0 0.0
2016-Jul-29 05:32N 59°55' E 030°15'0 0.0
2016-Jul-29 04:33N 59°55' E 030°15'0 0.0
2016-Jul-29 03:33N 59°55' E 030°15'0 0.0
2016-Jul-29 02:33N 59°55' E 030°15'0 0.1
2016-Jul-29 01:33N 59°55' E 030°15'4 4.3
2016-Jul-29 00:33N 59°56' E 030°24'7 6.8
2016-Jul-28 23:33N 59°50' E 030°31'0 0.0
2016-Jul-28 22:33N 59°50' E 030°31'0 0.0
2016-Jul-28 21:33N 59°50' E 030°31'0 0.0
2016-Jul-28 20:27N 59°50' E 030°31'0 0.0
2016-Jul-28 19:33N 59°50' E 030°31'0 0.0
2016-Jul-28 18:33N 59°50' E 030°31'0 0.0
2016-Jul-28 17:24N 59°50' E 030°31'0 0.0
2016-Jul-28 16:33N 59°50' E 030°31'0 0.0
2016-Jul-28 15:24N 59°50' E 030°31'0 0.0
2016-Jul-28 14:33N 59°50' E 030°31'0 0.0
2016-Jul-28 13:32N 59°50' E 030°31'0 0.0
2016-Jul-28 12:32N 59°50' E 030°31'2 2.3
2016-Jul-28 11:32N 59°49' E 030°35'  
Track history (hours):
 
Tides and Currents Weather Stations Pressure Air Temp Water Temp Dewpoint Dewpoint Depression Visibility Wind Speed Wind Dir Waves Ship Positions

Volgo-balt 229

Last reported at 2016-Jul-30 02:27 UTC. Time now 2016-Jul-30 07:23 UTC.
Position N 60°12' E 027°45'.

Length 113 m; draft 3.6 m.

Type: Ship. MMSI: 273336300.

Date/timePositionNaut miles runAvg speedWind from/ knotsBaromVisibWave heightAir tempDewpointWater temp
2016-Jul-30 02:27N 60°12' E 027°45'8 8.5
2016-Jul-30 01:29N 60°10' E 028°01'8 8.5
2016-Jul-30 00:33N 60°08' E 028°17'8 8.4
2016-Jul-29 23:33N 60°04' E 028°31'8 8.2
2016-Jul-29 22:33N 60°03' E 028°47'26 8.2
2016-Jul-29 19:25N 60°00' E 029°38'10 7.6
2016-Jul-29 18:10N 59°56' E 029°56'5 8.0
2016-Jul-29 17:33N 59°54' E 030°05'5 5.0
2016-Jul-29 16:32N 59°55' E 030°15'0 0.0
2016-Jul-29 15:32N 59°55' E 030°15'0 0.0
2016-Jul-29 14:32N 59°55' E 030°15'0 0.0
2016-Jul-29 13:32N 59°55' E 030°15'0 0.0
2016-Jul-29 12:32N 59°55' E 030°15'0 0.0
2016-Jul-29 11:32N 59°55' E 030°15'0 0.0
2016-Jul-29 10:32N 59°55' E 030°15'0 0.0
2016-Jul-29 09:32N 59°55' E 030°15'0 0.0
2016-Jul-29 08:26N 59°55' E 030°15'0 0.0
2016-Jul-29 07:32N 59°55' E 030°15'0 0.0
2016-Jul-29 06:32N 59°55' E 030°15'0 0.0
2016-Jul-29 05:32N 59°55' E 030°15'0 0.0
2016-Jul-29 04:33N 59°55' E 030°15'0 0.0
2016-Jul-29 03:33N 59°55' E 030°15'0 0.0
2016-Jul-29 02:33N 59°55' E 030°15'0 0.1
2016-Jul-29 01:33N 59°55' E 030°15'4 4.3
2016-Jul-29 00:33N 59°56' E 030°24'7 6.8
2016-Jul-28 23:33N 59°50' E 030°31'0 0.0
2016-Jul-28 22:33N 59°50' E 030°31'0 0.0
2016-Jul-28 21:33N 59°50' E 030°31'0 0.0
2016-Jul-28 20:27N 59°50' E 030°31'0 0.0
2016-Jul-28 19:33N 59°50' E 030°31'0 0.0
2016-Jul-28 18:33N 59°50' E 030°31'0 0.0
2016-Jul-28 17:24N 59°50' E 030°31'0 0.0
2016-Jul-28 16:33N 59°50' E 030°31'0 0.0
2016-Jul-28 15:24N 59°50' E 030°31'0 0.0
2016-Jul-28 14:33N 59°50' E 030°31'0 0.0
2016-Jul-28 13:32N 59°50' E 030°31'0 0.0
2016-Jul-28 12:32N 59°50' E 030°31'2 2.3
2016-Jul-28 11:32N 59°49' E 030°35'  

Dump ship's entire track history